Portada
METAR-TAF:

METAR-TAF

Aeroports :

Kryvyi Rih, Ucraïna

latitud: 48-03N, longitud: 033-13-12E, altitud: 124 m

Observació

L'informe es va fer fa 29 minuts, a les 23:30 UTC
Vent 6 kt del Est, variant entre Nord-Est i Sud/Sud-Est
Temperatura 4°C
Humitat 87%
Pressió 1028 hPa
Visibilitat: 6000 m
Cel cobert a una alçada de 2100 ft

METAR: UKDR 192330Z 09003MPS 050V150 6000 OVC021 04/02 Q1028 R36/09//70 NOSIG

Hora: 01:59 (23:59 UTC)

Pronòstic

L'informe es va fer fa 53 minuts, a les 23:06 UTC
Pronòstic vàlid del 20 a les 00 UTC al 20 a les 24 UTC
Vent 4 kt del Est
Visibilitat: 4000 m
Cel ennuvolat a una alçada de 700 ft
boirina
Temporalment
l' 20 a les 00 UTC al 20 a les 07 UTC
Visibilitat: 0300 m
a una alçada de 200 ft
boira
Evolucionant progressivament
l' 20 a les 11 UTC al 20 a les 13 UTC
Vent 14 kt del Est

TAF: UKDR 192306Z 2000/2024 08002MPS 4000 BR BKN007 TX07/2011Z TN03/2004Z TEMPO 2000/2007 0300 FG VV002 BECMG 2011/2013 08007MPS

Observacions i pronòstics meteorològics de més de 4000 aeroports (METAR i TAF).

Les estacions disponibles són els punts grocs i vermells al mapa.

Posi el ratolí al punt desitjat per veure el nom de l'estació.

Feu clic per veure les observacions i els pronòstics meteorològics.

Per canviar el mapa: feu clic els botons verds amb una creu de color negre per apropar; al botó verd amb un guió per allunyar la imatge; o en les fletxes verdes per a mapes adjacents.


METAR-TAF: